sensor_id;sensor_type;location;lat;lon;timestamp;P1;durP1;ratioP1;P2;durP2;ratioP2
16766;SDS011;8501;49.926;8.404;2023-03-08T00:00:12;4.60;;;2.17;;
16766;SDS011;8501;49.926;8.404;2023-03-08T00:02:40;4.20;;;1.97;;
16766;SDS011;8501;49.926;8.404;2023-03-08T00:05:06;3.30;;;2.10;;
16766;SDS011;8501;49.926;8.404;2023-03-08T00:07:32;2.47;;;1.57;;
16766;SDS011;8501;49.926;8.404;2023-03-08T00:09:58;3.57;;;1.50;;
16766;SDS011;8501;49.926;8.404;2023-03-08T00:12:24;2.20;;;1.40;;
16766;SDS011;8501;49.926;8.404;2023-03-08T00:14:50;2.20;;;1.50;;
16766;SDS011;8501;49.926;8.404;2023-03-08T00:17:15;2.10;;;1.23;;
16766;SDS011;8501;49.926;8.404;2023-03-08T00:19:42;2.23;;;1.50;;
16766;SDS011;8501;49.926;8.404;2023-03-08T00:22:08;2.40;;;1.50;;
16766;SDS011;8501;49.926;8.404;2023-03-08T00:24:34;1.80;;;1.27;;
16766;SDS011;8501;49.926;8.404;2023-03-08T00:26:59;1.73;;;1.10;;
16766;SDS011;8501;49.926;8.404;2023-03-08T00:29:25;1.57;;;1.10;;
16766;SDS011;8501;49.926;8.404;2023-03-08T00:31:50;1.20;;;1.10;;
16766;SDS011;8501;49.926;8.404;2023-03-08T00:34:16;3.00;;;1.33;;
16766;SDS011;8501;49.926;8.404;2023-03-08T00:36:42;1.47;;;1.20;;
16766;SDS011;8501;49.926;8.404;2023-03-08T00:39:08;2.20;;;1.50;;
16766;SDS011;8501;49.926;8.404;2023-03-08T00:41:35;2.30;;;1.50;;
16766;SDS011;8501;49.926;8.404;2023-03-08T00:44:01;1.60;;;1.00;;
16766;SDS011;8501;49.926;8.404;2023-03-08T00:46:26;1.67;;;1.30;;
16766;SDS011;8501;49.926;8.404;2023-03-08T00:48:52;2.33;;;1.30;;
16766;SDS011;8501;49.926;8.404;2023-03-08T00:51:18;2.30;;;1.47;;
16766;SDS011;8501;49.926;8.404;2023-03-08T00:53:45;2.30;;;1.67;;
16766;SDS011;8501;49.926;8.404;2023-03-08T00:56:11;2.23;;;1.60;;
16766;SDS011;8501;49.926;8.404;2023-03-08T00:58:37;2.87;;;1.90;;
16766;SDS011;8501;49.926;8.404;2023-03-08T01:01:04;3.00;;;1.60;;
16766;SDS011;8501;49.926;8.404;2023-03-08T01:03:31;2.50;;;1.63;;
16766;SDS011;8501;49.926;8.404;2023-03-08T01:05:57;2.10;;;1.47;;
16766;SDS011;8501;49.926;8.404;2023-03-08T01:08:24;3.23;;;1.67;;
16766;SDS011;8501;49.926;8.404;2023-03-08T01:10:54;2.80;;;1.63;;
16766;SDS011;8501;49.926;8.404;2023-03-08T01:13:22;2.10;;;1.53;;
16766;SDS011;8501;49.926;8.404;2023-03-08T01:15:49;2.57;;;1.60;;
16766;SDS011;8501;49.926;8.404;2023-03-08T01:18:14;3.13;;;1.70;;
16766;SDS011;8501;49.926;8.404;2023-03-08T01:20:40;2.87;;;1.80;;
16766;SDS011;8501;49.926;8.404;2023-03-08T01:23:06;2.57;;;1.80;;
16766;SDS011;8501;49.926;8.404;2023-03-08T01:25:32;2.80;;;1.80;;
16766;SDS011;8501;49.926;8.404;2023-03-08T01:27:58;3.10;;;1.90;;
16766;SDS011;8501;49.926;8.404;2023-03-08T01:30:23;4.07;;;1.97;;
16766;SDS011;8501;49.926;8.404;2023-03-08T01:32:49;4.13;;;2.37;;
16766;SDS011;8501;49.926;8.404;2023-03-08T01:35:15;3.50;;;2.50;;
16766;SDS011;8501;49.926;8.404;2023-03-08T01:37:40;2.67;;;2.13;;
16766;SDS011;8501;49.926;8.404;2023-03-08T01:40:06;4.73;;;2.70;;
16766;SDS011;8501;49.926;8.404;2023-03-08T01:42:32;4.87;;;2.53;;
16766;SDS011;8501;49.926;8.404;2023-03-08T01:44:59;4.33;;;2.30;;
16766;SDS011;8501;49.926;8.404;2023-03-08T01:47:27;4.07;;;2.50;;
16766;SDS011;8501;49.926;8.404;2023-03-08T01:49:56;4.40;;;2.20;;
16766;SDS011;8501;49.926;8.404;2023-03-08T01:52:28;3.17;;;2.13;;
16766;SDS011;8501;49.926;8.404;2023-03-08T01:55:15;3.80;;;2.30;;
16766;SDS011;8501;49.926;8.404;2023-03-08T01:57:43;4.67;;;2.57;;
16766;SDS011;8501;49.926;8.404;2023-03-08T02:00:17;3.60;;;2.20;;
16766;SDS011;8501;49.926;8.404;2023-03-08T02:02:48;2.97;;;2.13;;
16766;SDS011;8501;49.926;8.404;2023-03-08T02:05:17;3.80;;;2.40;;
16766;SDS011;8501;49.926;8.404;2023-03-08T02:07:43;4.47;;;2.50;;
16766;SDS011;8501;49.926;8.404;2023-03-08T02:10:09;4.10;;;2.47;;
16766;SDS011;8501;49.926;8.404;2023-03-08T02:12:37;4.23;;;2.80;;
16766;SDS011;8501;49.926;8.404;2023-03-08T02:15:04;4.47;;;2.90;;
16766;SDS011;8501;49.926;8.404;2023-03-08T02:17:33;4.13;;;2.70;;
16766;SDS011;8501;49.926;8.404;2023-03-08T02:20:09;5.17;;;3.20;;
16766;SDS011;8501;49.926;8.404;2023-03-08T02:22:41;5.10;;;2.77;;
16766;SDS011;8501;49.926;8.404;2023-03-08T02:25:21;4.90;;;2.90;;
16766;SDS011;8501;49.926;8.404;2023-03-08T02:27:49;5.13;;;3.20;;
16766;SDS011;8501;49.926;8.404;2023-03-08T02:30:21;6.30;;;3.57;;
16766;SDS011;8501;49.926;8.404;2023-03-08T02:32:48;6.83;;;4.20;;
16766;SDS011;8501;49.926;8.404;2023-03-08T02:35:14;7.43;;;3.93;;
16766;SDS011;8501;49.926;8.404;2023-03-08T02:37:39;5.37;;;3.30;;
16766;SDS011;8501;49.926;8.404;2023-03-08T02:40:05;5.50;;;3.07;;
16766;SDS011;8501;49.926;8.404;2023-03-08T02:42:32;5.03;;;3.10;;
16766;SDS011;8501;49.926;8.404;2023-03-08T02:44:57;5.03;;;3.00;;
16766;SDS011;8501;49.926;8.404;2023-03-08T02:47:23;7.23;;;4.50;;
16766;SDS011;8501;49.926;8.404;2023-03-08T02:49:48;5.63;;;3.87;;
16766;SDS011;8501;49.926;8.404;2023-03-08T02:52:14;5.47;;;3.47;;
16766;SDS011;8501;49.926;8.404;2023-03-08T02:54:39;9.07;;;4.40;;
16766;SDS011;8501;49.926;8.404;2023-03-08T02:57:05;8.73;;;4.53;;
16766;SDS011;8501;49.926;8.404;2023-03-08T02:59:30;6.43;;;3.93;;
16766;SDS011;8501;49.926;8.404;2023-03-08T03:01:56;7.80;;;4.40;;
16766;SDS011;8501;49.926;8.404;2023-03-08T03:04:22;6.93;;;3.90;;
16766;SDS011;8501;49.926;8.404;2023-03-08T03:06:47;9.10;;;4.70;;
16766;SDS011;8501;49.926;8.404;2023-03-08T03:09:13;7.80;;;4.60;;
16766;SDS011;8501;49.926;8.404;2023-03-08T03:11:39;12.40;;;5.00;;
16766;SDS011;8501;49.926;8.404;2023-03-08T03:14:05;9.13;;;4.93;;
16766;SDS011;8501;49.926;8.404;2023-03-08T03:16:31;9.80;;;5.57;;
16766;SDS011;8501;49.926;8.404;2023-03-08T03:18:56;15.03;;;5.90;;
16766;SDS011;8501;49.926;8.404;2023-03-08T03:21:22;12.20;;;6.77;;
16766;SDS011;8501;49.926;8.404;2023-03-08T03:23:48;14.37;;;7.30;;
16766;SDS011;8501;49.926;8.404;2023-03-08T03:26:15;13.80;;;7.23;;
16766;SDS011;8501;49.926;8.404;2023-03-08T03:28:43;15.83;;;8.20;;
16766;SDS011;8501;49.926;8.404;2023-03-08T03:31:10;17.33;;;8.40;;
16766;SDS011;8501;49.926;8.404;2023-03-08T03:33:41;16.50;;;8.43;;
16766;SDS011;8501;49.926;8.404;2023-03-08T03:36:07;16.97;;;8.97;;
16766;SDS011;8501;49.926;8.404;2023-03-08T03:38:35;17.53;;;9.33;;
16766;SDS011;8501;49.926;8.404;2023-03-08T03:41:02;17.63;;;9.10;;
16766;SDS011;8501;49.926;8.404;2023-03-08T03:43:29;18.97;;;9.63;;
16766;SDS011;8501;49.926;8.404;2023-03-08T03:45:59;17.27;;;9.60;;
16766;SDS011;8501;49.926;8.404;2023-03-08T03:48:26;18.03;;;9.87;;
16766;SDS011;8501;49.926;8.404;2023-03-08T03:50:56;21.17;;;9.97;;
16766;SDS011;8501;49.926;8.404;2023-03-08T03:53:30;17.07;;;10.17;;
16766;SDS011;8501;49.926;8.404;2023-03-08T03:56:18;17.67;;;9.53;;
16766;SDS011;8501;49.926;8.404;2023-03-08T03:58:43;17.93;;;9.67;;
16766;SDS011;8501;49.926;8.404;2023-03-08T04:01:11;19.23;;;9.63;;
16766;SDS011;8501;49.926;8.404;2023-03-08T04:03:39;18.87;;;10.10;;
16766;SDS011;8501;49.926;8.404;2023-03-08T04:06:12;19.30;;;10.00;;
16766;SDS011;8501;49.926;8.404;2023-03-08T04:08:39;24.27;;;9.57;;
16766;SDS011;8501;49.926;8.404;2023-03-08T04:11:13;16.63;;;9.10;;
16766;SDS011;8501;49.926;8.404;2023-03-08T04:13:40;18.37;;;9.53;;
16766;SDS011;8501;49.926;8.404;2023-03-08T04:16:07;18.60;;;10.20;;
16766;SDS011;8501;49.926;8.404;2023-03-08T04:18:44;18.93;;;10.00;;
16766;SDS011;8501;49.926;8.404;2023-03-08T04:21:10;19.50;;;10.13;;
16766;SDS011;8501;49.926;8.404;2023-03-08T04:23:36;18.57;;;9.70;;
16766;SDS011;8501;49.926;8.404;2023-03-08T04:26:02;19.53;;;10.67;;
16766;SDS011;8501;49.926;8.404;2023-03-08T04:28:28;17.40;;;9.83;;
16766;SDS011;8501;49.926;8.404;2023-03-08T04:30:54;20.30;;;9.83;;
16766;SDS011;8501;49.926;8.404;2023-03-08T04:33:20;19.43;;;9.60;;
16766;SDS011;8501;49.926;8.404;2023-03-08T04:35:46;19.63;;;9.73;;
16766;SDS011;8501;49.926;8.404;2023-03-08T04:38:12;21.40;;;10.60;;
16766;SDS011;8501;49.926;8.404;2023-03-08T04:40:37;19.00;;;10.10;;
16766;SDS011;8501;49.926;8.404;2023-03-08T04:43:23;19.17;;;10.00;;
16766;SDS011;8501;49.926;8.404;2023-03-08T04:45:49;20.80;;;10.73;;
16766;SDS011;8501;49.926;8.404;2023-03-08T04:48:15;17.17;;;9.53;;
16766;SDS011;8501;49.926;8.404;2023-03-08T04:50:40;16.50;;;9.30;;
16766;SDS011;8501;49.926;8.404;2023-03-08T04:53:06;18.23;;;9.20;;
16766;SDS011;8501;49.926;8.404;2023-03-08T04:55:32;20.13;;;9.60;;
16766;SDS011;8501;49.926;8.404;2023-03-08T04:57:58;18.00;;;9.37;;
16766;SDS011;8501;49.926;8.404;2023-03-08T05:00:23;16.73;;;9.50;;
16766;SDS011;8501;49.926;8.404;2023-03-08T05:02:49;17.90;;;9.30;;
16766;SDS011;8501;49.926;8.404;2023-03-08T05:05:15;17.77;;;9.80;;
16766;SDS011;8501;49.926;8.404;2023-03-08T05:07:40;18.97;;;10.03;;
16766;SDS011;8501;49.926;8.404;2023-03-08T05:10:06;18.37;;;9.87;;
16766;SDS011;8501;49.926;8.404;2023-03-08T05:12:32;21.80;;;9.87;;
16766;SDS011;8501;49.926;8.404;2023-03-08T05:14:57;17.73;;;9.53;;
16766;SDS011;8501;49.926;8.404;2023-03-08T05:17:23;19.40;;;10.10;;
16766;SDS011;8501;49.926;8.404;2023-03-08T05:19:48;17.40;;;9.57;;
16766;SDS011;8501;49.926;8.404;2023-03-08T05:22:14;18.20;;;9.90;;
16766;SDS011;8501;49.926;8.404;2023-03-08T05:24:39;17.70;;;9.30;;
16766;SDS011;8501;49.926;8.404;2023-03-08T05:27:08;17.47;;;9.77;;
16766;SDS011;8501;49.926;8.404;2023-03-08T05:29:34;21.23;;;9.90;;
16766;SDS011;8501;49.926;8.404;2023-03-08T05:32:01;20.43;;;10.57;;
16766;SDS011;8501;49.926;8.404;2023-03-08T05:34:27;19.87;;;10.77;;
16766;SDS011;8501;49.926;8.404;2023-03-08T05:36:54;21.17;;;10.67;;
16766;SDS011;8501;49.926;8.404;2023-03-08T05:39:19;19.40;;;11.00;;
16766;SDS011;8501;49.926;8.404;2023-03-08T05:41:45;21.57;;;11.10;;
16766;SDS011;8501;49.926;8.404;2023-03-08T05:44:10;20.00;;;10.37;;
16766;SDS011;8501;49.926;8.404;2023-03-08T05:46:36;18.07;;;9.97;;
16766;SDS011;8501;49.926;8.404;2023-03-08T05:49:05;18.57;;;10.03;;
16766;SDS011;8501;49.926;8.404;2023-03-08T05:51:31;20.27;;;10.40;;
16766;SDS011;8501;49.926;8.404;2023-03-08T05:53:56;19.87;;;10.10;;
16766;SDS011;8501;49.926;8.404;2023-03-08T05:56:22;20.63;;;10.07;;
16766;SDS011;8501;49.926;8.404;2023-03-08T05:58:49;19.50;;;9.90;;
16766;SDS011;8501;49.926;8.404;2023-03-08T06:01:16;18.50;;;9.23;;
16766;SDS011;8501;49.926;8.404;2023-03-08T06:03:44;17.03;;;9.10;;
16766;SDS011;8501;49.926;8.404;2023-03-08T06:06:11;19.10;;;9.90;;
16766;SDS011;8501;49.926;8.404;2023-03-08T06:08:37;18.27;;;9.70;;
16766;SDS011;8501;49.926;8.404;2023-03-08T06:11:03;17.63;;;8.80;;
16766;SDS011;8501;49.926;8.404;2023-03-08T06:13:28;17.27;;;9.00;;
16766;SDS011;8501;49.926;8.404;2023-03-08T06:15:54;17.77;;;9.47;;
16766;SDS011;8501;49.926;8.404;2023-03-08T06:18:21;20.40;;;10.07;;
16766;SDS011;8501;49.926;8.404;2023-03-08T06:20:57;18.20;;;9.10;;
16766;SDS011;8501;49.926;8.404;2023-03-08T06:23:24;17.60;;;9.10;;
16766;SDS011;8501;49.926;8.404;2023-03-08T06:25:51;19.43;;;9.80;;
16766;SDS011;8501;49.926;8.404;2023-03-08T06:28:17;17.00;;;9.07;;
16766;SDS011;8501;49.926;8.404;2023-03-08T06:30:42;19.13;;;10.20;;
16766;SDS011;8501;49.926;8.404;2023-03-08T06:33:08;20.67;;;10.30;;
16766;SDS011;8501;49.926;8.404;2023-03-08T06:35:33;17.80;;;9.80;;
16766;SDS011;8501;49.926;8.404;2023-03-08T06:37:59;17.97;;;9.83;;
16766;SDS011;8501;49.926;8.404;2023-03-08T06:40:24;20.93;;;10.10;;
16766;SDS011;8501;49.926;8.404;2023-03-08T06:42:50;17.87;;;10.53;;
16766;SDS011;8501;49.926;8.404;2023-03-08T06:45:15;20.73;;;10.27;;
16766;SDS011;8501;49.926;8.404;2023-03-08T06:47:41;20.13;;;9.90;;
16766;SDS011;8501;49.926;8.404;2023-03-08T06:50:07;21.03;;;11.03;;
16766;SDS011;8501;49.926;8.404;2023-03-08T06:52:33;19.63;;;10.47;;
16766;SDS011;8501;49.926;8.404;2023-03-08T06:55:02;20.43;;;10.47;;
16766;SDS011;8501;49.926;8.404;2023-03-08T06:57:28;22.03;;;10.67;;
16766;SDS011;8501;49.926;8.404;2023-03-08T06:59:54;19.37;;;10.63;;
16766;SDS011;8501;49.926;8.404;2023-03-08T07:02:19;19.97;;;10.93;;
16766;SDS011;8501;49.926;8.404;2023-03-08T07:04:45;20.87;;;10.77;;
16766;SDS011;8501;49.926;8.404;2023-03-08T07:07:10;23.53;;;10.77;;
16766;SDS011;8501;49.926;8.404;2023-03-08T07:09:36;20.27;;;11.30;;
16766;SDS011;8501;49.926;8.404;2023-03-08T07:12:01;19.87;;;11.30;;
16766;SDS011;8501;49.926;8.404;2023-03-08T07:14:27;22.37;;;11.00;;
16766;SDS011;8501;49.926;8.404;2023-03-08T07:16:53;22.33;;;11.83;;
16766;SDS011;8501;49.926;8.404;2023-03-08T07:19:18;23.10;;;12.00;;
16766;SDS011;8501;49.926;8.404;2023-03-08T07:21:44;22.37;;;11.40;;
16766;SDS011;8501;49.926;8.404;2023-03-08T07:24:10;25.13;;;12.10;;
16766;SDS011;8501;49.926;8.404;2023-03-08T07:26:35;23.87;;;11.57;;
16766;SDS011;8501;49.926;8.404;2023-03-08T07:29:01;23.03;;;11.00;;
16766;SDS011;8501;49.926;8.404;2023-03-08T07:31:26;20.83;;;10.60;;
16766;SDS011;8501;49.926;8.404;2023-03-08T07:33:53;22.03;;;10.70;;
16766;SDS011;8501;49.926;8.404;2023-03-08T07:36:19;24.00;;;11.53;;
16766;SDS011;8501;49.926;8.404;2023-03-08T07:38:45;23.60;;;12.30;;
16766;SDS011;8501;49.926;8.404;2023-03-08T07:41:11;24.37;;;12.03;;
16766;SDS011;8501;49.926;8.404;2023-03-08T07:43:37;24.90;;;12.63;;
16766;SDS011;8501;49.926;8.404;2023-03-08T07:46:02;24.93;;;12.57;;
16766;SDS011;8501;49.926;8.404;2023-03-08T07:48:29;24.73;;;12.80;;
16766;SDS011;8501;49.926;8.404;2023-03-08T07:50:59;28.40;;;12.27;;
16766;SDS011;8501;49.926;8.404;2023-03-08T07:53:27;25.33;;;13.10;;
16766;SDS011;8501;49.926;8.404;2023-03-08T07:55:52;28.90;;;13.57;;
16766;SDS011;8501;49.926;8.404;2023-03-08T07:58:18;26.60;;;13.33;;
16766;SDS011;8501;49.926;8.404;2023-03-08T08:00:45;28.23;;;13.13;;
16766;SDS011;8501;49.926;8.404;2023-03-08T08:03:11;27.83;;;13.23;;
16766;SDS011;8501;49.926;8.404;2023-03-08T08:05:36;27.90;;;13.53;;
16766;SDS011;8501;49.926;8.404;2023-03-08T08:08:02;27.40;;;13.73;;
16766;SDS011;8501;49.926;8.404;2023-03-08T08:10:28;25.17;;;12.90;;
16766;SDS011;8501;49.926;8.404;2023-03-08T08:12:53;23.67;;;11.80;;
16766;SDS011;8501;49.926;8.404;2023-03-08T08:15:19;24.30;;;11.20;;
16766;SDS011;8501;49.926;8.404;2023-03-08T08:17:45;30.33;;;12.57;;
16766;SDS011;8501;49.926;8.404;2023-03-08T08:20:10;27.63;;;12.60;;
16766;SDS011;8501;49.926;8.404;2023-03-08T08:22:36;25.00;;;12.87;;
16766;SDS011;8501;49.926;8.404;2023-03-08T08:25:03;26.80;;;12.30;;
16766;SDS011;8501;49.926;8.404;2023-03-08T08:27:29;25.00;;;12.43;;
16766;SDS011;8501;49.926;8.404;2023-03-08T08:29:55;28.03;;;13.47;;
16766;SDS011;8501;49.926;8.404;2023-03-08T08:32:20;23.57;;;12.50;;
16766;SDS011;8501;49.926;8.404;2023-03-08T08:34:46;26.83;;;12.90;;
16766;SDS011;8501;49.926;8.404;2023-03-08T08:37:11;25.20;;;12.77;;
16766;SDS011;8501;49.926;8.404;2023-03-08T08:39:37;24.77;;;12.30;;
16766;SDS011;8501;49.926;8.404;2023-03-08T08:42:03;25.83;;;12.40;;
16766;SDS011;8501;49.926;8.404;2023-03-08T08:44:29;24.67;;;12.87;;
16766;SDS011;8501;49.926;8.404;2023-03-08T08:46:54;25.00;;;12.17;;
16766;SDS011;8501;49.926;8.404;2023-03-08T08:49:20;25.37;;;12.67;;
16766;SDS011;8501;49.926;8.404;2023-03-08T08:51:45;23.80;;;11.63;;
16766;SDS011;8501;49.926;8.404;2023-03-08T08:54:11;24.30;;;12.00;;
16766;SDS011;8501;49.926;8.404;2023-03-08T08:56:37;23.17;;;11.97;;
16766;SDS011;8501;49.926;8.404;2023-03-08T08:59:08;24.87;;;11.83;;
16766;SDS011;8501;49.926;8.404;2023-03-08T09:01:35;25.53;;;13.37;;
16766;SDS011;8501;49.926;8.404;2023-03-08T09:04:03;26.50;;;13.07;;
16766;SDS011;8501;49.926;8.404;2023-03-08T09:06:29;24.00;;;12.70;;
16766;SDS011;8501;49.926;8.404;2023-03-08T09:08:56;28.67;;;13.97;;
16766;SDS011;8501;49.926;8.404;2023-03-08T09:11:23;27.17;;;13.30;;
16766;SDS011;8501;49.926;8.404;2023-03-08T09:13:50;29.50;;;13.40;;
16766;SDS011;8501;49.926;8.404;2023-03-08T09:16:16;30.10;;;14.93;;
16766;SDS011;8501;49.926;8.404;2023-03-08T09:18:43;30.90;;;15.10;;
16766;SDS011;8501;49.926;8.404;2023-03-08T09:21:09;29.33;;;14.97;;
16766;SDS011;8501;49.926;8.404;2023-03-08T09:23:35;28.37;;;14.43;;
16766;SDS011;8501;49.926;8.404;2023-03-08T09:26:00;32.53;;;15.67;;
16766;SDS011;8501;49.926;8.404;2023-03-08T09:28:28;33.30;;;16.10;;
16766;SDS011;8501;49.926;8.404;2023-03-08T09:30:54;31.00;;;15.80;;
16766;SDS011;8501;49.926;8.404;2023-03-08T09:33:19;34.37;;;16.77;;
16766;SDS011;8501;49.926;8.404;2023-03-08T09:35:53;35.63;;;16.90;;
16766;SDS011;8501;49.926;8.404;2023-03-08T09:38:20;34.70;;;16.80;;
16766;SDS011;8501;49.926;8.404;2023-03-08T09:40:48;36.23;;;18.03;;
16766;SDS011;8501;49.926;8.404;2023-03-08T09:46:12;34.67;;;17.23;;
16766;SDS011;8501;49.926;8.404;2023-03-08T09:48:48;36.27;;;17.37;;
16766;SDS011;8501;49.926;8.404;2023-03-08T09:51:17;35.03;;;17.53;;
16766;SDS011;8501;49.926;8.404;2023-03-08T09:53:52;37.23;;;18.43;;
16766;SDS011;8501;49.926;8.404;2023-03-08T09:59:20;37.90;;;18.63;;
16766;SDS011;8501;49.926;8.404;2023-03-08T10:02:01;37.13;;;18.57;;
16766;SDS011;8501;49.926;8.404;2023-03-08T10:07:28;36.07;;;18.73;;
16766;SDS011;8501;49.926;8.404;2023-03-08T10:10:23;36.90;;;18.70;;
16766;SDS011;8501;49.926;8.404;2023-03-08T10:16:22;34.00;;;19.10;;
16766;SDS011;8501;49.926;8.404;2023-03-08T10:18:54;36.77;;;19.13;;
16766;SDS011;8501;49.926;8.404;2023-03-08T10:21:23;35.70;;;19.17;;
16766;SDS011;8501;49.926;8.404;2023-03-08T10:24:38;37.03;;;18.80;;
16766;SDS011;8501;49.926;8.404;2023-03-08T10:26:36;36.47;;;19.83;;
16766;SDS011;8501;49.926;8.404;2023-03-08T10:29:02;38.20;;;19.77;;
16766;SDS011;8501;49.926;8.404;2023-03-08T10:31:28;35.77;;;18.73;;
16766;SDS011;8501;49.926;8.404;2023-03-08T10:33:57;38.47;;;19.77;;
16766;SDS011;8501;49.926;8.404;2023-03-08T10:36:44;44.70;;;22.00;;
16766;SDS011;8501;49.926;8.404;2023-03-08T10:39:15;41.63;;;22.07;;
16766;SDS011;8501;49.926;8.404;2023-03-08T10:41:45;39.50;;;20.80;;
16766;SDS011;8501;49.926;8.404;2023-03-08T10:47:00;36.93;;;19.70;;
16766;SDS011;8501;49.926;8.404;2023-03-08T10:49:28;34.43;;;18.67;;
16766;SDS011;8501;49.926;8.404;2023-03-08T10:51:58;35.50;;;18.67;;
16766;SDS011;8501;49.926;8.404;2023-03-08T10:54:25;35.00;;;18.80;;
16766;SDS011;8501;49.926;8.404;2023-03-08T10:59:26;34.17;;;18.33;;
16766;SDS011;8501;49.926;8.404;2023-03-08T11:02:17;34.03;;;18.93;;
16766;SDS011;8501;49.926;8.404;2023-03-08T11:04:50;34.80;;;18.97;;
16766;SDS011;8501;49.926;8.404;2023-03-08T11:07:21;32.87;;;17.77;;
16766;SDS011;8501;49.926;8.404;2023-03-08T11:09:50;33.40;;;18.57;;
16766;SDS011;8501;49.926;8.404;2023-03-08T11:12:24;36.20;;;18.50;;
16766;SDS011;8501;49.926;8.404;2023-03-08T11:14:50;37.80;;;19.53;;
16766;SDS011;8501;49.926;8.404;2023-03-08T11:20:00;37.43;;;19.00;;
16766;SDS011;8501;49.926;8.404;2023-03-08T11:22:48;33.60;;;18.67;;
16766;SDS011;8501;49.926;8.404;2023-03-08T11:25:32;32.30;;;17.77;;
16766;SDS011;8501;49.926;8.404;2023-03-08T11:31:03;36.30;;;19.57;;
16766;SDS011;8501;49.926;8.404;2023-03-08T11:33:53;31.53;;;18.20;;
16766;SDS011;8501;49.926;8.404;2023-03-08T11:36:39;38.20;;;20.17;;
16766;SDS011;8501;49.926;8.404;2023-03-08T11:39:28;38.63;;;19.40;;
16766;SDS011;8501;49.926;8.404;2023-03-08T11:42:09;40.30;;;19.73;;
16766;SDS011;8501;49.926;8.404;2023-03-08T11:47:51;41.10;;;20.87;;
16766;SDS011;8501;49.926;8.404;2023-03-08T11:58:30;40.60;;;20.60;;
16766;SDS011;8501;49.926;8.404;2023-03-08T12:01:21;39.43;;;21.33;;
16766;SDS011;8501;49.926;8.404;2023-03-08T12:03:55;41.87;;;21.57;;
16766;SDS011;8501;49.926;8.404;2023-03-08T12:06:32;45.27;;;21.03;;
16766;SDS011;8501;49.926;8.404;2023-03-08T12:11:46;39.40;;;21.23;;
16766;SDS011;8501;49.926;8.404;2023-03-08T12:14:34;36.60;;;20.33;;
16766;SDS011;8501;49.926;8.404;2023-03-08T12:17:18;46.20;;;20.73;;
16766;SDS011;8501;49.926;8.404;2023-03-08T12:19:48;38.27;;;20.33;;
16766;SDS011;8501;49.926;8.404;2023-03-08T12:32:35;41.63;;;20.17;;
16766;SDS011;8501;49.926;8.404;2023-03-08T12:35:03;38.80;;;21.20;;
16766;SDS011;8501;49.926;8.404;2023-03-08T12:37:31;41.27;;;21.20;;
16766;SDS011;8501;49.926;8.404;2023-03-08T12:40:03;38.53;;;20.47;;
16766;SDS011;8501;49.926;8.404;2023-03-08T12:45:09;44.30;;;22.57;;
16766;SDS011;8501;49.926;8.404;2023-03-08T12:50:29;38.13;;;20.57;;
16766;SDS011;8501;49.926;8.404;2023-03-08T12:52:59;41.97;;;21.30;;
16766;SDS011;8501;49.926;8.404;2023-03-08T12:55:26;45.03;;;22.53;;
16766;SDS011;8501;49.926;8.404;2023-03-08T12:57:56;42.77;;;23.30;;
16766;SDS011;8501;49.926;8.404;2023-03-08T13:00:32;44.30;;;21.87;;
16766;SDS011;8501;49.926;8.404;2023-03-08T13:05:36;44.57;;;23.83;;
16766;SDS011;8501;49.926;8.404;2023-03-08T13:13:48;46.37;;;22.53;;
16766;SDS011;8501;49.926;8.404;2023-03-08T13:16:19;43.27;;;22.63;;
16766;SDS011;8501;49.926;8.404;2023-03-08T13:18:46;47.17;;;23.17;;
16766;SDS011;8501;49.926;8.404;2023-03-08T13:21:27;42.43;;;21.67;;
16766;SDS011;8501;49.926;8.404;2023-03-08T13:26:45;42.57;;;22.40;;
16766;SDS011;8501;49.926;8.404;2023-03-08T13:29:18;42.43;;;21.27;;
16766;SDS011;8501;49.926;8.404;2023-03-08T13:31:44;45.83;;;23.77;;
16766;SDS011;8501;49.926;8.404;2023-03-08T13:34:30;43.93;;;22.40;;
16766;SDS011;8501;49.926;8.404;2023-03-08T13:36:57;47.40;;;23.17;;
16766;SDS011;8501;49.926;8.404;2023-03-08T13:39:24;48.17;;;24.00;;
16766;SDS011;8501;49.926;8.404;2023-03-08T13:41:52;46.53;;;22.80;;
16766;SDS011;8501;49.926;8.404;2023-03-08T13:44:28;49.27;;;24.53;;
16766;SDS011;8501;49.926;8.404;2023-03-08T13:46:55;47.40;;;24.03;;
16766;SDS011;8501;49.926;8.404;2023-03-08T13:49:28;47.60;;;23.60;;
16766;SDS011;8501;49.926;8.404;2023-03-08T13:52:02;49.30;;;23.87;;
16766;SDS011;8501;49.926;8.404;2023-03-08T13:54:40;52.17;;;23.63;;
16766;SDS011;8501;49.926;8.404;2023-03-08T13:57:22;46.60;;;22.63;;
16766;SDS011;8501;49.926;8.404;2023-03-08T13:59:54;46.87;;;22.53;;
16766;SDS011;8501;49.926;8.404;2023-03-08T14:02:22;48.53;;;23.67;;
16766;SDS011;8501;49.926;8.404;2023-03-08T14:04:55;46.90;;;24.10;;
16766;SDS011;8501;49.926;8.404;2023-03-08T14:07:26;53.40;;;24.83;;
16766;SDS011;8501;49.926;8.404;2023-03-08T14:09:53;50.60;;;24.93;;
16766;SDS011;8501;49.926;8.404;2023-03-08T14:12:21;50.00;;;25.43;;
16766;SDS011;8501;49.926;8.404;2023-03-08T14:14:53;51.17;;;24.43;;
16766;SDS011;8501;49.926;8.404;2023-03-08T14:17:22;52.47;;;25.23;;
16766;SDS011;8501;49.926;8.404;2023-03-08T14:19:55;48.67;;;25.13;;
16766;SDS011;8501;49.926;8.404;2023-03-08T14:22:22;53.07;;;26.37;;
16766;SDS011;8501;49.926;8.404;2023-03-08T14:24:57;55.77;;;28.00;;
16766;SDS011;8501;49.926;8.404;2023-03-08T14:27:36;55.87;;;28.27;;
16766;SDS011;8501;49.926;8.404;2023-03-08T14:30:20;53.87;;;27.00;;
16766;SDS011;8501;49.926;8.404;2023-03-08T14:33:30;57.63;;;27.83;;
16766;SDS011;8501;49.926;8.404;2023-03-08T14:35:39;58.47;;;28.70;;
16766;SDS011;8501;49.926;8.404;2023-03-08T14:38:11;63.40;;;28.93;;
16766;SDS011;8501;49.926;8.404;2023-03-08T14:40:44;60.90;;;28.87;;
16766;SDS011;8501;49.926;8.404;2023-03-08T14:43:20;68.50;;;29.87;;
16766;SDS011;8501;49.926;8.404;2023-03-08T14:50:58;60.13;;;29.03;;
16766;SDS011;8501;49.926;8.404;2023-03-08T14:56:21;55.60;;;26.73;;
16766;SDS011;8501;49.926;8.404;2023-03-08T14:58:46;50.63;;;26.03;;
16766;SDS011;8501;49.926;8.404;2023-03-08T15:03:59;53.17;;;25.73;;
16766;SDS011;8501;49.926;8.404;2023-03-08T15:06:27;58.23;;;27.93;;
16766;SDS011;8501;49.926;8.404;2023-03-08T15:08:55;55.97;;;26.43;;
16766;SDS011;8501;49.926;8.404;2023-03-08T15:11:22;52.10;;;26.00;;
16766;SDS011;8501;49.926;8.404;2023-03-08T15:13:48;53.40;;;25.20;;
16766;SDS011;8501;49.926;8.404;2023-03-08T15:16:13;50.50;;;25.30;;
16766;SDS011;8501;49.926;8.404;2023-03-08T15:18:40;49.73;;;26.80;;
16766;SDS011;8501;49.926;8.404;2023-03-08T15:21:05;53.87;;;29.10;;
16766;SDS011;8501;49.926;8.404;2023-03-08T15:23:35;60.60;;;31.30;;
16766;SDS011;8501;49.926;8.404;2023-03-08T15:26:03;56.83;;;27.47;;
16766;SDS011;8501;49.926;8.404;2023-03-08T15:28:30;50.07;;;26.27;;
16766;SDS011;8501;49.926;8.404;2023-03-08T15:30:56;60.17;;;28.97;;
16766;SDS011;8501;49.926;8.404;2023-03-08T15:33:21;64.33;;;30.20;;
16766;SDS011;8501;49.926;8.404;2023-03-08T15:35:47;54.73;;;27.40;;
16766;SDS011;8501;49.926;8.404;2023-03-08T15:38:14;55.67;;;27.33;;
16766;SDS011;8501;49.926;8.404;2023-03-08T15:40:41;56.67;;;27.70;;
16766;SDS011;8501;49.926;8.404;2023-03-08T15:43:07;57.67;;;27.27;;
16766;SDS011;8501;49.926;8.404;2023-03-08T15:45:33;57.57;;;28.90;;
16766;SDS011;8501;49.926;8.404;2023-03-08T15:48:01;58.50;;;28.07;;
16766;SDS011;8501;49.926;8.404;2023-03-08T15:50:41;61.33;;;29.53;;
16766;SDS011;8501;49.926;8.404;2023-03-08T15:53:07;65.93;;;33.63;;
16766;SDS011;8501;49.926;8.404;2023-03-08T15:55:34;64.53;;;33.40;;
16766;SDS011;8501;49.926;8.404;2023-03-08T15:58:00;71.90;;;37.27;;
16766;SDS011;8501;49.926;8.404;2023-03-08T16:00:26;67.40;;;36.83;;
16766;SDS011;8501;49.926;8.404;2023-03-08T16:02:52;67.90;;;33.23;;
16766;SDS011;8501;49.926;8.404;2023-03-08T16:05:18;61.67;;;30.67;;